Nieuw Amsterdam — PBWQ — position and weather

sailwx.info

Track history (hours):
 
Tides and Currents Weather Stations Pressure Air Temp Water Temp Dewpoint Dewpoint Depression Visibility Wind Speed Wind Dir Waves Ship Positions

Nieuw Amsterdam

Last reported at 2018-May-27 15:30 UTC. Time now 2018-May-27 15:51 UTC.
Position N 52°10' W 128°46'.

Length 285 m; draft 8 m.

Type: Passenger vessel. MMSI: 246648000.

Date/timePositionNaut miles runAvg speedWind from/ knotsBaromVisibWave heightAir tempDewpointWater temp
2018-May-27 15:30N 52°10' W 128°46'918.8
2018-May-27 15:00N 52°00' W 128°43'1019.7
2018-May-27 14:30N 51°51' W 128°39'1019.2
2018-May-27 14:00N 51°42' W 128°34'6401.2
2018-May-27 14:00N 51°36' W 128°30'4 7.8 150 / 301019.5 2.2 11.0 8.116.0
2018-May-27 13:30N 51°33' W 128°32'918.8
2018-May-27 13:00N 51°23' W 128°33'5345.6
2018-May-27 13:00N 51°18' W 128°30'3 6.5 150 / 251019.8 2.2 11.0 8.115.0
2018-May-27 12:30N 51°16' W 128°27'918.8
2018-May-27 12:00N 51°10' W 128°14'1019.3
2018-May-27 11:30N 51°05' W 128°02'1020.3
2018-May-27 11:00N 50°59' W 127°49'1121.4
2018-May-27 10:30N 50°53' W 127°35'1121.1
2018-May-27 10:00N 50°48' W 127°20'1020.6
2018-May-27 09:30N 50°44' W 127°05'1120.0
2018-May-27 08:59N 50°39' W 126°50'816.7
2018-May-27 08:29N 50°33' W 126°41'1017.1
2018-May-27 07:55N 50°30' W 126°27'2719.7
2018-May-27 06:33N 50°22' W 125°46'1018.6
2018-May-27 06:02N 50°21' W 125°31'317.6
2018-May-27 05:53N 50°20' W 125°27'614.9
2018-May-27 05:30N 50°15' W 125°23'816.3
2018-May-27 05:00N 50°07' W 125°20'815.7
2018-May-27 04:30N 50°01' W 125°13'918.0
2018-May-27 03:59N 49°54' W 125°04'1021.0
2018-May-27 03:30N 49°47' W 124°53'1121.1
2018-May-27 03:00N 49°40' W 124°41'1121.2
2018-May-27 02:29N 49°32' W 124°29'1121.0
2018-May-27 01:58N 49°25' W 124°16'1121.0
2018-May-27 01:28N 49°21' W 124°00'1120.9
2018-May-27 00:57N 49°20' W 123°44'1120.9
2018-May-27 00:26N 49°19' W 123°27'920.6
2018-May-27 00:00N 49°19' W 123°14'510.1
2018-May-26 23:30N 49°17' W 123°07'0 0.1
2018-May-26 22:59N 49°17' W 123°07'0 0.0
2018-May-26 22:29N 49°17' W 123°07'0 0.0
2018-May-26 21:57N 49°17' W 123°07'0 0.0
2018-May-26 21:30N 49°17' W 123°07'0 0.0
2018-May-26 21:00N 49°17' W 123°07'0 0.0
2018-May-26 20:28N 49°17' W 123°07'0 0.0
2018-May-26 20:01N 49°17' W 123°07'0 0.0
2018-May-26 19:30N 49°17' W 123°07'0 0.0
2018-May-26 19:00N 49°17' W 123°07'0 0.0
2018-May-26 18:30N 49°17' W 123°07'0 0.0
2018-May-26 17:59N 49°17' W 123°07'0 0.0
2018-May-26 17:30N 49°17' W 123°07'0 0.0
2018-May-26 17:00N 49°17' W 123°07'0 0.0
2018-May-26 16:28N 49°17' W 123°07'0 0.0
2018-May-26 16:00N 49°17' W 123°07'0 0.0
2018-May-26 15:29N 49°17' W 123°07'0 0.0
2018-May-26 14:59N 49°17' W 123°07'0 0.0
2018-May-26 14:30N 49°17' W 123°07'0 0.1
2018-May-26 14:00N 49°17' W 123°07'1 2.8
2018-May-26 13:30N 49°19' W 123°08'510.3
2018-May-26 13:00N 49°18' W 123°16'610.9
2018-May-26 12:29N 49°18' W 123°24'711.7
2018-May-26 11:53N 49°19' W 123°35'510.7
2018-May-26 11:28N 49°19' W 123°42'510.5
2018-May-26 11:00N 49°21' W 123°49'3198.8
2018-May-26 11:00N 49°18' W 123°48'714.3 270 / 141016.710.8 14.011.220.0
2018-May-26 10:30N 49°22' W 123°57'510.7
2018-May-26 10:00N 49°23' W 124°05'510.8
2018-May-26 09:30N 49°24' W 124°13'510.6
2018-May-26 09:00N 49°26' W 124°21'610.6
2018-May-26 08:29N 49°29' W 124°28'611.5
2018-May-26 07:58N 49°33' W 124°34'511.2
2018-May-26 07:30N 49°37' W 124°40'511.0
2018-May-26 07:00N 49°41' W 124°45'611.2
2018-May-26 06:30N 49°45' W 124°51'1111.0
2018-May-26 05:30N 49°53' W 125°03'611.2
2018-May-26 05:00N 49°57' W 125°09'611.6
2018-May-26 04:31N 50°02' W 125°14'612.4
2018-May-26 04:00N 50°07' W 125°20'612.1
2018-May-26 03:30N 50°13' W 125°23'714.3
2018-May-26 03:00N 50°20' W 125°26'1013.2
2018-May-26 02:15N 50°22' W 125°41'413.8
2018-May-26 01:58N 50°22' W 125°47'2513.3
2018-May-26 00:02N 50°30' W 126°25'214.2
2018-May-25 23:56N 50°30' W 126°28'614.7
2018-May-25 23:30N 50°31' W 126°38'712.9
2018-May-25 22:59N 50°36' W 126°44'815.9
2018-May-25 22:30N 50°41' W 126°53'815.9
2018-May-25 21:59N 50°44' W 127°05'815.8
2018-May-25 21:30N 50°47' W 127°17'815.4
2018-May-25 21:00N 50°50' W 127°28'815.1
2018-May-25 20:30N 50°54' W 127°38'815.4
2018-May-25 20:00N 50°59' W 127°47'713.3
2018-May-25 19:31N 51°02' W 127°56'815.7
2018-May-25 19:00N 51°07' W 128°07'815.9
2018-May-25 18:31N 51°12' W 128°17'817.0
2018-May-25 18:01N 51°16' W 128°28'5293.6
2018-May-25 18:00N 51°12' W 128°24'1327.3 180 / 201017.110.8 11.0 16.0
2018-May-25 17:30N 51°24' W 128°33'816.5
2018-May-25 17:00N 51°32' W 128°33'816.1
2018-May-25 16:30N 51°40' W 128°33'816.0
2018-May-25 16:00N 51°48' W 128°38'918.0
2018-May-25 15:31N 51°53' W 128°50'918.4
2018-May-25 15:01N 51°59' W 129°02'918.5
2018-May-25 14:31N 52°04' W 129°14'1018.6
2018-May-25 14:00N 52°10' W 129°26'1615.5
2018-May-25 13:00N 52°18' W 129°48'3517.6 180 / 181016.010.8 10.0 6.815.0
2018-May-25 11:00N 52°48' W 130°18'3023.9 140 / 221016.310.8 10.0 6.815.0
2018-May-25 09:44N 53°16' W 130°38'519.2
2018-May-25 09:29N 53°20' W 130°42'919.2
2018-May-25 09:00N 53°28' W 130°49'4748.8
2018-May-25 09:00N 53°24' W 130°48'1428.2 170 / 201016.310.8 10.0 14.0
2018-May-25 08:30N 53°37' W 130°52'1019.0
2018-May-25 08:00N 53°47' W 130°55'918.6
2018-May-25 07:30N 53°56' W 130°58'918.6
2018-May-25 07:00N 54°05' W 131°01'918.6
2018-May-25 06:30N 54°14' W 131°03'1018.8
2018-May-25 05:59N 54°23' W 131°08'918.6
2018-May-25 05:30N 54°32' W 131°13'1018.4
2018-May-25 04:58N 54°42' W 131°14'269 9.6
2018-May-24 01:00N 58°06' W 136°30'1530.3 250 / 141009.910.8 10.0 12.0
2018-May-24 00:29N 58°19' W 136°13'816.3
2018-May-24 00:00N 58°22' W 136°00'612.2
2018-May-23 23:30N 58°28' W 136°03'917.4
2018-May-23 23:00N 58°37' W 136°05'917.3
2018-May-23 22:30N 58°44' W 136°15'917.6
2018-May-23 21:58N 58°50' W 136°30'1 0.1
2018-May-23 16:12N 58°49' W 136°29'416.6
2018-May-23 15:57N 58°47' W 136°23'816.7
2018-May-23 15:30N 58°42' W 136°12'816.5
2018-May-23 15:00N 58°34' W 136°04'5303.7
2018-May-23 15:00N 58°30' W 136°00'4 7.9 320 / 101014.710.8 7.0 5.412.0
2018-May-23 14:30N 58°26' W 135°60'510.7
2018-May-23 14:00N 58°21' W 135°57'3226.7
2018-May-23 14:00N 58°18' W 135°54'4 8.4 340 / 81014.910.8 7.0 5.212.0
2018-May-23 13:30N 58°18' W 135°46'612.4
2018-May-23 13:00N 58°16' W 135°35'612.6
2018-May-23 12:30N 58°14' W 135°24'712.7
2018-May-23 12:00N 58°12' W 135°12'24 8.1 010 / 41015.410.8 7.0 4.712.0
2018-May-23 09:00N 58°36' W 135°06'3 0.1 110 / 41015.510.8 8.4 10.6
2018-May-22 10:00N 58°36' W 135°00'94 5.2 040 / 101009.3 1.1 8.0 5.812.0
2018-May-21 16:00N 57°06' W 134°06'2713.7 150 / 221007.1 2.2 9.0 6.912.0
2018-May-21 14:00N 56°42' W 134°30'16915.2 170 / 201007.1 5.4 9.0 6.912.0
2018-May-21 02:55N 54°25' W 131°37'1017.1
2018-May-21 02:20N 54°22' W 131°20'617.6
2018-May-21 01:59N 54°21' W 131°10'815.7
2018-May-21 01:30N 54°18' W 130°58'611.5
2018-May-21 01:00N 54°13' W 131°01'917.2
2018-May-21 00:30N 54°05' W 131°01'917.6
2018-May-21 00:00N 53°56' W 130°56'918.5
2018-May-20 23:31N 53°49' W 130°45'918.8
2018-May-20 23:00N 53°43' W 130°33'916.7
2018-May-20 22:30N 53°37' W 130°23'916.8
2018-May-20 21:58N 53°33' W 130°10'7415.4
2018-May-20 17:10N 52°35' W 128°53'315.3
2018-May-20 16:59N 52°32' W 128°53'919.0
2018-May-20 16:31N 52°23' W 128°50'918.6
2018-May-20 16:00N 52°14' W 128°49'917.5
2018-May-20 15:30N 52°06' W 128°45'816.9
2018-May-20 15:01N 51°57' W 128°43'918.4
2018-May-20 14:30N 51°49' W 128°38'918.5
2018-May-20 14:01N 51°40' W 128°33'4265.3
2018-May-20 14:00N 51°36' W 128°30'611.4 250 / 151016.510.8 10.0 5.616.0
2018-May-20 13:30N 51°31' W 128°33'1019.1
2018-May-20 13:01N 51°21' W 128°33'4219.6
2018-May-20 13:00N 51°18' W 128°30'511.3 240 / 81016.110.8 10.0 5.616.0
2018-May-20 12:31N 51°14' W 128°23'918.8
2018-May-20 12:01N 51°09' W 128°11'1019.0
2018-May-20 11:30N 51°03' W 127°59'1019.1
2018-May-20 11:00N 50°58' W 127°46'1019.2
2018-May-20 10:30N 50°52' W 127°34'1019.3
2018-May-20 10:00N 50°48' W 127°20'1019.0
2018-May-20 09:30N 50°45' W 127°06'1019.2
2018-May-20 09:00N 50°41' W 126°52'5427.8
2018-May-20 09:00N 50°36' W 126°54'815.5 280 / 151015.9 5.4 9.3 6.512.5
2018-May-20 08:28N 50°34' W 126°41'3617.7
2018-May-20 06:25N 50°23' W 125°48'1019.4
2018-May-20 05:54N 50°21' W 125°32'614.0
2018-May-20 05:29N 50°18' W 125°25'817.4
2018-May-20 05:00N 50°10' W 125°22'612.7
2018-May-20 04:30N 50°05' W 125°16'814.9
2018-May-20 04:00N 49°58' W 125°10'1019.5
2018-May-20 03:30N 49°51' W 124°60'1121.5
2018-May-20 03:00N 49°44' W 124°48'1121.5
2018-May-20 02:30N 49°37' W 124°35'1122.0
2018-May-20 02:00N 49°28' W 124°24'1123.1
2018-May-20 01:30N 49°23' W 124°08'1523.6
2018-May-20 00:53N 49°20' W 123°46'1023.3
2018-May-20 00:28N 49°19' W 123°31'1022.9
2018-May-20 00:01N 49°19' W 123°15'611.9
2018-May-19 23:30N 49°18' W 123°06'0 0.9
2018-May-19 22:57N 49°17' W 123°07'0 0.0
2018-May-19 22:27N 49°17' W 123°07'0 0.0
2018-May-19 22:00N 49°17' W 123°07'0 0.0
2018-May-19 21:30N 49°17' W 123°07'0 0.0
2018-May-19 21:00N 49°17' W 123°07'0 0.0
2018-May-19 20:27N 49°17' W 123°07'0 0.0
2018-May-19 20:00N 49°17' W 123°07'0 0.0
2018-May-19 19:30N 49°17' W 123°07'0 0.0
2018-May-19 18:50N 49°17' W 123°07'0 0.0
2018-May-19 18:23N 49°17' W 123°07'0 0.0
2018-May-19 17:59N 49°17' W 123°07'0 0.0
2018-May-19 17:23N 49°17' W 123°07'0 0.0
2018-May-19 16:59N 49°17' W 123°07'0 0.0
2018-May-19 16:23N 49°17' W 123°07'0 0.0
2018-May-19 15:59N 49°17' W 123°07'0 0.0
2018-May-19 15:29N 49°17' W 123°07'0 0.0
2018-May-19 14:44N 49°17' W 123°07'0 0.0
2018-May-19 14:29N 49°17' W 123°07'0 0.2
2018-May-19 14:00N 49°17' W 123°07'2 4.3
2018-May-19 13:30N 49°19' W 123°09'510.0
2018-May-19 12:58N 49°19' W 123°17'510.2
2018-May-19 12:27N 49°19' W 123°25'610.2
2018-May-19 11:53N 49°19' W 123°34'610.6
2018-May-19 11:19N 49°19' W 123°43'2 5.5
2018-May-19 11:00N 49°18' W 123°42'5794.4 150 / 121018.110.8 14.012.218.0
2018-May-19 10:59N 49°20' W 123°48'510.5
2018-May-19 10:29N 49°21' W 123°56'510.7
2018-May-19 09:59N 49°22' W 124°04'510.8
2018-May-19 09:30N 49°24' W 124°12'510.7
2018-May-19 09:00N 49°25' W 124°20'5663.2
2018-May-19 09:00N 49°24' W 124°12'1121.8 110 / 201015.310.8 14.010.217.0
2018-May-19 08:30N 49°28' W 124°27'510.2
2018-May-19 07:59N 49°32' W 124°33'510.4
2018-May-19 07:31N 49°35' W 124°38'510.5
2018-May-19 06:59N 49°39' W 124°44'510.4
2018-May-19 06:30N 49°43' W 124°49'510.3
2018-May-19 06:00N 49°47' W 124°54'510.2
2018-May-19 05:30N 49°50' W 124°60'510.3
2018-May-19 05:00N 49°54' W 125°05'510.5
2018-May-19 04:29N 49°58' W 125°11'611.8
2018-May-19 04:00N 50°03' W 125°15'612.8
2018-May-19 03:31N 50°08' W 125°21'815.8
2018-May-19 03:00N 50°16' W 125°24'3114.9
2018-May-19 00:54N 50°28' W 126°09'5315.7
2018-May-18 21:31N 50°50' W 127°26'023.4
2018-May-18 21:30N 50°50' W 127°26'917.2
2018-May-18 21:00N 50°54' W 127°38'816.3
2018-May-18 20:30N 50°59' W 127°48'713.1
2018-May-18 20:01N 51°03' W 127°56'714.7
2018-May-18 19:30N 51°06' W 128°07'816.5
2018-May-18 19:01N 51°10' W 128°18'816.2
2018-May-18 18:31N 51°14' W 128°30'714.2
2018-May-18 18:01N 51°21' W 128°33'815.6
2018-May-18 17:30N 51°29' W 128°33'815.5
2018-May-18 17:01N 51°36' W 128°32'815.3
2018-May-18 16:31N 51°44' W 128°35'815.0
2018-May-18 16:01N 51°49' W 128°43'815.2
2018-May-18 15:30N 51°54' W 128°53'816.0
2018-May-18 15:00N 51°59' W 129°03'815.8
2018-May-18 14:30N 52°04' W 129°13'816.0
2018-May-18 14:00N 52°08' W 129°24'4295.8
2018-May-18 14:00N 52°06' W 129°18'1326.1 230 / 141020.410.8 10.0 7.915.0
2018-May-18 13:30N 52°14' W 129°34'816.3
2018-May-18 13:01N 52°19' W 129°45'816.0
2018-May-18 12:31N 52°25' W 129°53'919.0
2018-May-18 12:01N 52°33' W 130°00'1019.5
2018-May-18 11:30N 52°42' W 130°08'1019.4
2018-May-18 11:01N 52°50' W 130°16'3002177196.2
2018-May-18 11:00N 02°48' W 130°12'30116236.9 210 / 51020.2 5.4 10.0 9.014.0
2018-May-18 10:31N 52°59' W 130°23'1019.2
2018-May-18 10:00N 53°08' W 130°31'1019.4
2018-May-18 09:30N 53°16' W 130°39'1019.5
2018-May-18 09:00N 53°25' W 130°46'919.0
2018-May-18 08:31N 53°34' W 130°51'918.9
2018-May-18 08:00N 53°43' W 130°54'163.0
2018-May-18 08:00N 53°42' W 130°54'1021.6 320 / 81020.010.8 9.7 15.9
2018-May-18 07:31N 53°52' W 130°57'1019.4
2018-May-18 07:00N 54°02' W 130°60'1019.5
2018-May-18 06:31N 54°12' W 131°02'1019.5
2018-May-18 06:00N 54°21' W 131°05'918.6
2018-May-18 05:30N 54°30' W 131°12'1018.0
2018-May-18 04:59N 54°39' W 131°15'919.6
2018-May-18 04:30N 54°48' W 131°11'1019.5
2018-May-18 04:00N 54°57' W 131°08'1916.1
2018-May-18 02:49N 55°14' W 131°25'11 1.1
2018-May-17 17:00N 55°18' W 131°42'   320 / 161023.110.8 22.0 3.314.0
Track history (hours):
 
Tides and Currents Weather Stations Pressure Air Temp Water Temp Dewpoint Dewpoint Depression Visibility Wind Speed Wind Dir Waves Ship Positions

Nieuw Amsterdam

Last reported at 2018-May-27 15:30 UTC. Time now 2018-May-27 15:51 UTC.
Position N 52°10' W 128°46'.

Length 285 m; draft 8 m.

Type: Passenger vessel. MMSI: 246648000.

Date/timePositionNaut miles runAvg speedWind from/ knotsBaromVisibWave heightAir tempDewpointWater temp
2018-May-27 15:30N 52°10' W 128°46'918.8
2018-May-27 15:00N 52°00' W 128°43'1019.7
2018-May-27 14:30N 51°51' W 128°39'1019.2
2018-May-27 14:00N 51°42' W 128°34'6401.2
2018-May-27 14:00N 51°36' W 128°30'4 7.8 150 / 301019.5 2.2 11.0 8.116.0
2018-May-27 13:30N 51°33' W 128°32'918.8
2018-May-27 13:00N 51°23' W 128°33'5345.6
2018-May-27 13:00N 51°18' W 128°30'3 6.5 150 / 251019.8 2.2 11.0 8.115.0
2018-May-27 12:30N 51°16' W 128°27'918.8
2018-May-27 12:00N 51°10' W 128°14'1019.3
2018-May-27 11:30N 51°05' W 128°02'1020.3
2018-May-27 11:00N 50°59' W 127°49'1121.4
2018-May-27 10:30N 50°53' W 127°35'1121.1
2018-May-27 10:00N 50°48' W 127°20'1020.6
2018-May-27 09:30N 50°44' W 127°05'1120.0
2018-May-27 08:59N 50°39' W 126°50'816.7
2018-May-27 08:29N 50°33' W 126°41'1017.1
2018-May-27 07:55N 50°30' W 126°27'2719.7
2018-May-27 06:33N 50°22' W 125°46'1018.6
2018-May-27 06:02N 50°21' W 125°31'317.6
2018-May-27 05:53N 50°20' W 125°27'614.9
2018-May-27 05:30N 50°15' W 125°23'816.3
2018-May-27 05:00N 50°07' W 125°20'815.7
2018-May-27 04:30N 50°01' W 125°13'918.0
2018-May-27 03:59N 49°54' W 125°04'1021.0
2018-May-27 03:30N 49°47' W 124°53'1121.1
2018-May-27 03:00N 49°40' W 124°41'1121.2
2018-May-27 02:29N 49°32' W 124°29'1121.0
2018-May-27 01:58N 49°25' W 124°16'1121.0
2018-May-27 01:28N 49°21' W 124°00'1120.9
2018-May-27 00:57N 49°20' W 123°44'1120.9
2018-May-27 00:26N 49°19' W 123°27'920.6
2018-May-27 00:00N 49°19' W 123°14'510.1
2018-May-26 23:30N 49°17' W 123°07'0 0.1
2018-May-26 22:59N 49°17' W 123°07'0 0.0
2018-May-26 22:29N 49°17' W 123°07'0 0.0
2018-May-26 21:57N 49°17' W 123°07'0 0.0
2018-May-26 21:30N 49°17' W 123°07'0 0.0
2018-May-26 21:00N 49°17' W 123°07'0 0.0
2018-May-26 20:28N 49°17' W 123°07'0 0.0
2018-May-26 20:01N 49°17' W 123°07'0 0.0
2018-May-26 19:30N 49°17' W 123°07'0 0.0
2018-May-26 19:00N 49°17' W 123°07'0 0.0
2018-May-26 18:30N 49°17' W 123°07'0 0.0
2018-May-26 17:59N 49°17' W 123°07'0 0.0
2018-May-26 17:30N 49°17' W 123°07'0 0.0
2018-May-26 17:00N 49°17' W 123°07'0 0.0
2018-May-26 16:28N 49°17' W 123°07'0 0.0
2018-May-26 16:00N 49°17' W 123°07'0 0.0
2018-May-26 15:29N 49°17' W 123°07'0 0.0
2018-May-26 14:59N 49°17' W 123°07'0 0.0
2018-May-26 14:30N 49°17' W 123°07'0 0.1
2018-May-26 14:00N 49°17' W 123°07'1 2.8
2018-May-26 13:30N 49°19' W 123°08'510.3
2018-May-26 13:00N 49°18' W 123°16'610.9
2018-May-26 12:29N 49°18' W 123°24'711.7
2018-May-26 11:53N 49°19' W 123°35'510.7
2018-May-26 11:28N 49°19' W 123°42'510.5
2018-May-26 11:00N 49°21' W 123°49'3198.8
2018-May-26 11:00N 49°18' W 123°48'714.3 270 / 141016.710.8 14.011.220.0
2018-May-26 10:30N 49°22' W 123°57'510.7
2018-May-26 10:00N 49°23' W 124°05'510.8
2018-May-26 09:30N 49°24' W 124°13'510.6
2018-May-26 09:00N 49°26' W 124°21'610.6
2018-May-26 08:29N 49°29' W 124°28'611.5
2018-May-26 07:58N 49°33' W 124°34'511.2
2018-May-26 07:30N 49°37' W 124°40'511.0
2018-May-26 07:00N 49°41' W 124°45'611.2
2018-May-26 06:30N 49°45' W 124°51'1111.0
2018-May-26 05:30N 49°53' W 125°03'611.2
2018-May-26 05:00N 49°57' W 125°09'611.6
2018-May-26 04:31N 50°02' W 125°14'612.4
2018-May-26 04:00N 50°07' W 125°20'612.1
2018-May-26 03:30N 50°13' W 125°23'714.3
2018-May-26 03:00N 50°20' W 125°26'1013.2
2018-May-26 02:15N 50°22' W 125°41'413.8
2018-May-26 01:58N 50°22' W 125°47'2513.3
2018-May-26 00:02N 50°30' W 126°25'214.2
2018-May-25 23:56N 50°30' W 126°28'614.7
2018-May-25 23:30N 50°31' W 126°38'712.9
2018-May-25 22:59N 50°36' W 126°44'815.9
2018-May-25 22:30N 50°41' W 126°53'815.9
2018-May-25 21:59N 50°44' W 127°05'815.8
2018-May-25 21:30N 50°47' W 127°17'815.4
2018-May-25 21:00N 50°50' W 127°28'815.1
2018-May-25 20:30N 50°54' W 127°38'815.4
2018-May-25 20:00N 50°59' W 127°47'713.3
2018-May-25 19:31N 51°02' W 127°56'815.7
2018-May-25 19:00N 51°07' W 128°07'815.9
2018-May-25 18:31N 51°12' W 128°17'817.0
2018-May-25 18:01N 51°16' W 128°28'5293.6
2018-May-25 18:00N 51°12' W 128°24'1327.3 180 / 201017.110.8 11.0 16.0
2018-May-25 17:30N 51°24' W 128°33'816.5
2018-May-25 17:00N 51°32' W 128°33'816.1
2018-May-25 16:30N 51°40' W 128°33'816.0
2018-May-25 16:00N 51°48' W 128°38'918.0
2018-May-25 15:31N 51°53' W 128°50'918.4
2018-May-25 15:01N 51°59' W 129°02'918.5
2018-May-25 14:31N 52°04' W 129°14'1018.6
2018-May-25 14:00N 52°10' W 129°26'1615.5
2018-May-25 13:00N 52°18' W 129°48'3517.6 180 / 181016.010.8 10.0 6.815.0
2018-May-25 11:00N 52°48' W 130°18'3023.9 140 / 221016.310.8 10.0 6.815.0
2018-May-25 09:44N 53°16' W 130°38'519.2
2018-May-25 09:29N 53°20' W 130°42'919.2
2018-May-25 09:00N 53°28' W 130°49'4748.8
2018-May-25 09:00N 53°24' W 130°48'1428.2 170 / 201016.310.8 10.0 14.0
2018-May-25 08:30N 53°37' W 130°52'1019.0
2018-May-25 08:00N 53°47' W 130°55'918.6
2018-May-25 07:30N 53°56' W 130°58'918.6
2018-May-25 07:00N 54°05' W 131°01'918.6
2018-May-25 06:30N 54°14' W 131°03'1018.8
2018-May-25 05:59N 54°23' W 131°08'918.6
2018-May-25 05:30N 54°32' W 131°13'1018.4
2018-May-25 04:58N 54°42' W 131°14'269 9.6
2018-May-24 01:00N 58°06' W 136°30'1530.3 250 / 141009.910.8 10.0 12.0
2018-May-24 00:29N 58°19' W 136°13'816.3
2018-May-24 00:00N 58°22' W 136°00'612.2
2018-May-23 23:30N 58°28' W 136°03'917.4
2018-May-23 23:00N 58°37' W 136°05'917.3
2018-May-23 22:30N 58°44' W 136°15'917.6
2018-May-23 21:58N 58°50' W 136°30'1 0.1
2018-May-23 16:12N 58°49' W 136°29'416.6
2018-May-23 15:57N 58°47' W 136°23'816.7
2018-May-23 15:30N 58°42' W 136°12'816.5
2018-May-23 15:00N 58°34' W 136°04'5303.7
2018-May-23 15:00N 58°30' W 136°00'4 7.9 320 / 101014.710.8 7.0 5.412.0
2018-May-23 14:30N 58°26' W 135°60'510.7
2018-May-23 14:00N 58°21' W 135°57'3226.7
2018-May-23 14:00N 58°18' W 135°54'4 8.4 340 / 81014.910.8 7.0 5.212.0
2018-May-23 13:30N 58°18' W 135°46'612.4
2018-May-23 13:00N 58°16' W 135°35'612.6
2018-May-23 12:30N 58°14' W 135°24'712.7
2018-May-23 12:00N 58°12' W 135°12'24 8.1 010 / 41015.410.8 7.0 4.712.0
2018-May-23 09:00N 58°36' W 135°06'3 0.1 110 / 41015.510.8 8.4 10.6
2018-May-22 10:00N 58°36' W 135°00'94 5.2 040 / 101009.3 1.1 8.0 5.812.0
2018-May-21 16:00N 57°06' W 134°06'2713.7 150 / 221007.1 2.2 9.0 6.912.0
2018-May-21 14:00N 56°42' W 134°30'16915.2 170 / 201007.1 5.4 9.0 6.912.0
2018-May-21 02:55N 54°25' W 131°37'1017.1
2018-May-21 02:20N 54°22' W 131°20'617.6
2018-May-21 01:59N 54°21' W 131°10'815.7
2018-May-21 01:30N 54°18' W 130°58'611.5
2018-May-21 01:00N 54°13' W 131°01'917.2
2018-May-21 00:30N 54°05' W 131°01'917.6
2018-May-21 00:00N 53°56' W 130°56'918.5
2018-May-20 23:31N 53°49' W 130°45'918.8
2018-May-20 23:00N 53°43' W 130°33'916.7
2018-May-20 22:30N 53°37' W 130°23'916.8
2018-May-20 21:58N 53°33' W 130°10'7415.4
2018-May-20 17:10N 52°35' W 128°53'315.3
2018-May-20 16:59N 52°32' W 128°53'919.0
2018-May-20 16:31N 52°23' W 128°50'918.6
2018-May-20 16:00N 52°14' W 128°49'917.5
2018-May-20 15:30N 52°06' W 128°45'816.9
2018-May-20 15:01N 51°57' W 128°43'918.4
2018-May-20 14:30N 51°49' W 128°38'918.5
2018-May-20 14:01N 51°40' W 128°33'4265.3
2018-May-20 14:00N 51°36' W 128°30'611.4 250 / 151016.510.8 10.0 5.616.0
2018-May-20 13:30N 51°31' W 128°33'1019.1
2018-May-20 13:01N 51°21' W 128°33'4219.6
2018-May-20 13:00N 51°18' W 128°30'511.3 240 / 81016.110.8 10.0 5.616.0
2018-May-20 12:31N 51°14' W 128°23'918.8
2018-May-20 12:01N 51°09' W 128°11'1019.0
2018-May-20 11:30N 51°03' W 127°59'1019.1
2018-May-20 11:00N 50°58' W 127°46'1019.2
2018-May-20 10:30N 50°52' W 127°34'1019.3
2018-May-20 10:00N 50°48' W 127°20'1019.0
2018-May-20 09:30N 50°45' W 127°06'1019.2
2018-May-20 09:00N 50°41' W 126°52'5427.8
2018-May-20 09:00N 50°36' W 126°54'815.5 280 / 151015.9 5.4 9.3 6.512.5
2018-May-20 08:28N 50°34' W 126°41'3617.7
2018-May-20 06:25N 50°23' W 125°48'1019.4
2018-May-20 05:54N 50°21' W 125°32'614.0
2018-May-20 05:29N 50°18' W 125°25'817.4
2018-May-20 05:00N 50°10' W 125°22'612.7
2018-May-20 04:30N 50°05' W 125°16'814.9
2018-May-20 04:00N 49°58' W 125°10'1019.5
2018-May-20 03:30N 49°51' W 124°60'1121.5
2018-May-20 03:00N 49°44' W 124°48'1121.5
2018-May-20 02:30N 49°37' W 124°35'1122.0
2018-May-20 02:00N 49°28' W 124°24'1123.1
2018-May-20 01:30N 49°23' W 124°08'1523.6
2018-May-20 00:53N 49°20' W 123°46'1023.3
2018-May-20 00:28N 49°19' W 123°31'1022.9
2018-May-20 00:01N 49°19' W 123°15'611.9
2018-May-19 23:30N 49°18' W 123°06'0 0.9
2018-May-19 22:57N 49°17' W 123°07'0 0.0
2018-May-19 22:27N 49°17' W 123°07'0 0.0
2018-May-19 22:00N 49°17' W 123°07'0 0.0
2018-May-19 21:30N 49°17' W 123°07'0 0.0
2018-May-19 21:00N 49°17' W 123°07'0 0.0
2018-May-19 20:27N 49°17' W 123°07'0 0.0
2018-May-19 20:00N 49°17' W 123°07'0 0.0
2018-May-19 19:30N 49°17' W 123°07'0 0.0
2018-May-19 18:50N 49°17' W 123°07'0 0.0
2018-May-19 18:23N 49°17' W 123°07'0 0.0
2018-May-19 17:59N 49°17' W 123°07'0 0.0
2018-May-19 17:23N 49°17' W 123°07'0 0.0
2018-May-19 16:59N 49°17' W 123°07'0 0.0
2018-May-19 16:23N 49°17' W 123°07'0 0.0
2018-May-19 15:59N 49°17' W 123°07'0 0.0
2018-May-19 15:29N 49°17' W 123°07'0 0.0
2018-May-19 14:44N 49°17' W 123°07'0 0.0
2018-May-19 14:29N 49°17' W 123°07'0 0.2
2018-May-19 14:00N 49°17' W 123°07'2 4.3
2018-May-19 13:30N 49°19' W 123°09'510.0
2018-May-19 12:58N 49°19' W 123°17'510.2
2018-May-19 12:27N 49°19' W 123°25'610.2
2018-May-19 11:53N 49°19' W 123°34'610.6
2018-May-19 11:19N 49°19' W 123°43'2 5.5
2018-May-19 11:00N 49°18' W 123°42'5794.4 150 / 121018.110.8 14.012.218.0
2018-May-19 10:59N 49°20' W 123°48'510.5
2018-May-19 10:29N 49°21' W 123°56'510.7
2018-May-19 09:59N 49°22' W 124°04'510.8
2018-May-19 09:30N 49°24' W 124°12'510.7
2018-May-19 09:00N 49°25' W 124°20'5663.2
2018-May-19 09:00N 49°24' W 124°12'1121.8 110 / 201015.310.8 14.010.217.0
2018-May-19 08:30N 49°28' W 124°27'510.2
2018-May-19 07:59N 49°32' W 124°33'510.4
2018-May-19 07:31N 49°35' W 124°38'510.5
2018-May-19 06:59N 49°39' W 124°44'510.4
2018-May-19 06:30N 49°43' W 124°49'510.3
2018-May-19 06:00N 49°47' W 124°54'510.2
2018-May-19 05:30N 49°50' W 124°60'510.3
2018-May-19 05:00N 49°54' W 125°05'510.5
2018-May-19 04:29N 49°58' W 125°11'611.8
2018-May-19 04:00N 50°03' W 125°15'612.8
2018-May-19 03:31N 50°08' W 125°21'815.8
2018-May-19 03:00N 50°16' W 125°24'3114.9
2018-May-19 00:54N 50°28' W 126°09'5315.7
2018-May-18 21:31N 50°50' W 127°26'023.4
2018-May-18 21:30N 50°50' W 127°26'917.2
2018-May-18 21:00N 50°54' W 127°38'816.3
2018-May-18 20:30N 50°59' W 127°48'713.1
2018-May-18 20:01N 51°03' W 127°56'714.7
2018-May-18 19:30N 51°06' W 128°07'816.5
2018-May-18 19:01N 51°10' W 128°18'816.2
2018-May-18 18:31N 51°14' W 128°30'714.2
2018-May-18 18:01N 51°21' W 128°33'815.6
2018-May-18 17:30N 51°29' W 128°33'815.5
2018-May-18 17:01N 51°36' W 128°32'815.3
2018-May-18 16:31N 51°44' W 128°35'815.0
2018-May-18 16:01N 51°49' W 128°43'815.2
2018-May-18 15:30N 51°54' W 128°53'816.0
2018-May-18 15:00N 51°59' W 129°03'815.8
2018-May-18 14:30N 52°04' W 129°13'816.0
2018-May-18 14:00N 52°08' W 129°24'4295.8
2018-May-18 14:00N 52°06' W 129°18'1326.1 230 / 141020.410.8 10.0 7.915.0
2018-May-18 13:30N 52°14' W 129°34'816.3
2018-May-18 13:01N 52°19' W 129°45'816.0
2018-May-18 12:31N 52°25' W 129°53'919.0
2018-May-18 12:01N 52°33' W 130°00'1019.5
2018-May-18 11:30N 52°42' W 130°08'1019.4
2018-May-18 11:01N 52°50' W 130°16'3002177196.2
2018-May-18 11:00N 02°48' W 130°12'30116236.9 210 / 51020.2 5.4 10.0 9.014.0
2018-May-18 10:31N 52°59' W 130°23'1019.2
2018-May-18 10:00N 53°08' W 130°31'1019.4
2018-May-18 09:30N 53°16' W 130°39'1019.5
2018-May-18 09:00N 53°25' W 130°46'919.0
2018-May-18 08:31N 53°34' W 130°51'918.9
2018-May-18 08:00N 53°43' W 130°54'163.0
2018-May-18 08:00N 53°42' W 130°54'1021.6 320 / 81020.010.8 9.7 15.9
2018-May-18 07:31N 53°52' W 130°57'1019.4
2018-May-18 07:00N 54°02' W 130°60'1019.5
2018-May-18 06:31N 54°12' W 131°02'1019.5
2018-May-18 06:00N 54°21' W 131°05'918.6
2018-May-18 05:30N 54°30' W 131°12'1018.0
2018-May-18 04:59N 54°39' W 131°15'919.6
2018-May-18 04:30N 54°48' W 131°11'1019.5
2018-May-18 04:00N 54°57' W 131°08'1916.1
2018-May-18 02:49N 55°14' W 131°25'11 1.1
2018-May-17 17:00N 55°18' W 131°42'   320 / 161023.110.8 22.0 3.314.0

Dump ship's entire track history